Terminal Aerodrome Forecast
Issued by NWS

Home | Current Version | Previous Version | Text Only | Print | Product List | Glossary On
Versions: 1 2 3 4 5 6 7 8 9 10 11 12 13 14 15 16 17 18 19 20 21 22 23 24 25 26 27 28 29
000
FTUS43 KDMX 152320
TAFFOD
TAF
KFOD 152320Z 1600/1624 36004KT P6SM BKN050
     FM160100 VRB02KT P6SM SKC
     FM160900 00000KT 2SM BR SCT001
     FM161400 22007KT P6SM FEW040=

USA.gov is the U.S. government's official web portal to all federal, state and local government web resources and services.